Time;durP1;ratioP1;P1;durP2;ratioP2;P2;SDS_P1;SDS_P2;PMS_P1;PMS_P2;Temp;Humidity;BMP_temperature;BMP_pressure;BME280_temperature;BME280_humidity;BME280_pressure;Samples;Min_cycle;Max_cycle;Signal;HPM_P1;HPM_P2
2021/08/13 00:01:18;;;;;;;10.60;5.45;;;20.70;62.20;;;;;;5055569;28;20107;-74
2021/08/13 00:03:44;;;;;;;7.13;4.82;;;20.60;62.20;;;;;;5056154;28;20060;-74
2021/08/13 00:06:10;;;;;;;7.85;4.60;;;20.60;62.30;;;;;;5055421;28;20025;-75
2021/08/13 00:08:36;;;;;;;6.78;4.68;;;20.60;62.50;;;;;;5055750;28;20037;-74
2021/08/13 00:11:02;;;;;;;6.38;4.82;;;20.50;62.60;;;;;;5055434;28;20481;-75
2021/08/13 00:13:27;;;;;;;7.03;4.35;;;20.50;62.80;;;;;;5055730;28;20029;-75
2021/08/13 00:15:53;;;;;;;9.13;4.78;;;20.50;63.00;;;;;;5054487;28;20028;-74
2021/08/13 00:18:19;;;;;;;7.70;4.53;;;20.40;63.00;;;;;;5055797;28;20087;-74
2021/08/13 00:20:44;;;;;;;7.05;4.38;;;20.40;63.10;;;;;;5055848;28;20025;-75
2021/08/13 00:23:10;;;;;;;9.05;4.85;;;20.40;63.20;;;;;;5055532;28;20021;-74
2021/08/13 00:25:36;;;;;;;8.50;5.13;;;20.40;63.30;;;;;;5054232;28;20028;-74
2021/08/13 00:28:02;;;;;;;8.93;4.90;;;20.40;63.40;;;;;;5055423;28;20033;-75
2021/08/13 00:30:28;;;;;;;6.55;4.78;;;20.30;63.30;;;;;;5055506;28;20083;-74
2021/08/13 00:32:53;;;;;;;6.68;4.57;;;20.30;63.30;;;;;;5055787;28;20025;-75
2021/08/13 00:35:19;;;;;;;6.53;4.20;;;20.30;63.40;;;;;;5055130;28;20436;-74
2021/08/13 00:37:45;;;;;;;7.28;4.25;;;20.30;63.40;;;;;;5055176;28;20032;-74
2021/08/13 00:40:11;;;;;;;10.73;4.90;;;20.30;63.60;;;;;;5054826;28;20112;-74
2021/08/13 00:42:37;;;;;;;8.05;4.32;;;20.30;63.50;;;;;;5054799;28;20393;-73
2021/08/13 00:45:04;;;;;;;7.65;5.10;;;20.30;63.50;;;;;;5055113;28;20040;-73
2021/08/13 00:47:30;;;;;;;6.28;4.50;;;20.30;63.70;;;;;;5055034;28;20025;-75
2021/08/13 00:49:56;;;;;;;6.18;4.28;;;20.30;63.50;;;;;;5054127;28;20035;-74
2021/08/13 00:52:22;;;;;;;7.95;4.95;;;20.30;63.50;;;;;;5055016;28;20036;-73
2021/08/13 00:54:48;;;;;;;8.40;4.75;;;20.30;63.50;;;;;;5053262;28;20067;-74
2021/08/13 00:57:14;;;;;;;8.30;4.85;;;20.30;63.40;;;;;;5053381;28;20029;-75
2021/08/13 00:59:41;;;;;;;7.72;5.45;;;20.30;63.40;;;;;;5054672;28;20029;-74
2021/08/13 01:02:07;;;;;;;7.55;4.45;;;20.20;63.30;;;;;;5054332;28;20477;-74
2021/08/13 01:04:33;;;;;;;5.95;4.20;;;20.30;63.30;;;;;;5054320;28;20036;-74
2021/08/13 01:07:00;;;;;;;8.50;4.68;;;20.20;63.30;;;;;;5054201;28;20379;-74
2021/08/13 01:09:27;;;;;;;6.28;4.40;;;20.20;63.40;;;;;;5052905;28;20519;-74
2021/08/13 01:12:23;;;;;;;6.47;4.57;;;20.20;63.40;;;;;;5054477;28;20029;-74
2021/08/13 01:15:00;;;;;;;5.35;4.22;;;20.20;63.50;;;;;;5054238;28;20476;-74
2021/08/13 01:17:31;;;;;;;6.78;4.55;;;20.10;63.40;;;;;;5054113;28;20095;-75
2021/08/13 01:20:11;;;;;;;6.32;4.35;;;20.10;63.40;;;;;;5053857;28;20025;-74
2021/08/13 01:23:03;;;;;;;7.65;4.85;;;20.10;63.30;;;;;;5054273;28;20037;-75
2021/08/13 01:25:33;;;;;;;8.13;4.40;;;20.10;63.40;;;;;;5054641;28;20029;-75
2021/08/13 01:28:09;;;;;;;6.75;4.50;;;20.10;63.50;;;;;;5054448;28;20060;-75
2021/08/13 01:30:37;;;;;;;6.55;4.70;;;20.10;63.60;;;;;;5053893;28;20032;-75
2021/08/13 01:33:08;;;;;;;6.80;4.32;;;20.10;63.60;;;;;;5053886;28;20025;-75
2021/08/13 01:35:38;;;;;;;6.10;4.72;;;20.10;63.80;;;;;;5053264;28;20036;-75
2021/08/13 01:38:11;;;;;;;6.47;4.50;;;20.10;63.80;;;;;;5052596;28;20021;-73
2021/08/13 01:40:40;;;;;;;7.50;4.45;;;20.00;63.80;;;;;;5053708;28;20111;-74
2021/08/13 01:43:08;;;;;;;6.88;4.57;;;20.00;63.80;;;;;;5054207;28;20096;-74
2021/08/13 01:45:35;;;;;;;5.60;4.70;;;20.00;64.00;;;;;;5053954;28;20024;-74
2021/08/13 01:48:04;;;;;;;7.13;4.38;;;20.00;64.00;;;;;;5051965;28;20025;-74
2021/08/13 01:50:30;;;;;;;7.00;4.70;;;20.00;64.20;;;;;;5053823;28;20063;-75
2021/08/13 01:52:58;;;;;;;8.55;4.70;;;20.00;64.20;;;;;;5053994;28;20049;-74
2021/08/13 01:55:25;;;;;;;10.13;4.95;;;19.90;64.30;;;;;;5053374;28;20472;-74
2021/08/13 01:57:52;;;;;;;10.88;4.82;;;19.90;64.40;;;;;;5053667;28;20023;-74
2021/08/13 02:00:20;;;;;;;8.82;4.43;;;19.90;64.50;;;;;;5052700;28;20090;-75
2021/08/13 02:02:47;;;;;;;6.80;4.80;;;19.90;64.60;;;;;;5053350;28;20033;-73
2021/08/13 02:05:18;;;;;;;6.57;4.45;;;19.90;64.70;;;;;;5052985;28;20369;-74
2021/08/13 02:07:44;;;;;;;7.45;4.70;;;19.80;64.80;;;;;;5053784;28;20025;-74
2021/08/13 02:10:11;;;;;;;8.45;4.93;;;19.80;64.80;;;;;;5054031;28;20086;-75
2021/08/13 02:12:37;;;;;;;7.00;4.97;;;19.80;64.90;;;;;;5053807;28;20104;-75
2021/08/13 02:15:09;;;;;;;7.90;4.60;;;19.70;65.00;;;;;;5053802;28;20049;-74
2021/08/13 02:17:58;;;;;;;7.45;5.07;;;19.70;65.20;;;;;;5053743;28;20029;-75
2021/08/13 02:20:26;;;;;;;8.30;5.47;;;19.70;65.30;;;;;;5068638;28;20037;-75
2021/08/13 02:22:52;;;;;;;6.85;4.95;;;19.60;65.30;;;;;;5053470;28;20090;-74
2021/08/13 02:25:18;;;;;;;9.30;4.72;;;19.60;65.50;;;;;;5053208;28;20108;-75
2021/08/13 02:27:44;;;;;;;6.93;4.97;;;19.60;65.70;;;;;;5053170;28;20489;-75
2021/08/13 02:30:10;;;;;;;7.10;5.00;;;19.60;65.90;;;;;;5052197;28;20083;-74
2021/08/13 02:32:36;;;;;;;6.28;4.53;;;19.50;65.90;;;;;;5053945;28;20053;-74
2021/08/13 02:35:04;;;;;;;6.53;5.07;;;19.50;66.00;;;;;;5053443;28;20021;-74
2021/08/13 02:38:11;;;;;;;8.02;5.55;;;19.50;66.00;;;;;;5053191;28;20036;-74
2021/08/13 02:40:55;;;;;;;6.40;5.00;;;19.50;66.00;;;;;;5052714;28;20479;-75
2021/08/13 02:43:33;;;;;;;;;;;19.40;66.00;;;;;;5054099;28;20464;-74
2021/08/13 02:46:01;;;;;;;7.22;5.35;;;19.40;65.70;;;;;;5053372;28;19905;-74
2021/08/13 02:48:33;;;;;;;8.15;5.20;;;19.40;66.00;;;;;;5053308;28;20033;-75
2021/08/13 02:51:01;;;;;;;5.88;4.85;;;19.40;66.30;;;;;;5053373;28;20028;-74
2021/08/13 02:53:28;;;;;;;7.90;5.22;;;19.40;66.40;;;;;;5051725;28;20118;-74
2021/08/13 02:56:07;;;;;;;8.65;5.32;;;19.30;66.50;;;;;;5052897;28;20064;-74
2021/08/13 02:58:54;;;;;;;6.63;5.18;;;19.30;66.70;;;;;;5054607;28;20037;-74
2021/08/13 03:01:28;;;;;;;9.60;5.72;;;19.30;66.70;;;;;;5056151;28;20075;-74
2021/08/13 03:03:54;;;;;;;;;;;19.40;66.80;;;;;;5056987;28;20162;-74
2021/08/13 03:06:23;;;;;;;6.97;5.25;;;19.40;66.40;;;;;;5056894;28;19948;-75
2021/08/13 03:08:50;;;;;;;9.85;5.55;;;19.30;66.70;;;;;;5057113;28;20029;-74
2021/08/13 03:11:17;;;;;;;7.47;5.32;;;19.30;66.80;;;;;;5056831;28;20032;-73
2021/08/13 03:13:44;;;;;;;7.30;5.10;;;19.40;67.00;;;;;;5056504;28;20021;-74
2021/08/13 03:16:10;;;;;;;8.10;5.78;;;19.40;67.10;;;;;;5056447;28;20021;-74
2021/08/13 03:18:39;;;;;;;6.63;5.70;;;19.40;67.10;;;;;;5056855;28;20037;-73
2021/08/13 03:21:05;;;;;;;8.82;6.07;;;19.40;67.00;;;;;;5057160;28;20338;-74
2021/08/13 03:23:30;;;;;;;10.45;6.72;;;19.40;67.00;;;;;;5056539;28;20508;-74
2021/08/13 03:25:57;;;;;;;10.05;6.80;;;19.40;67.00;;;;;;5055850;28;20112;-74
2021/08/13 03:28:23;;;;;;;8.13;6.93;;;19.50;67.10;;;;;;5056537;28;20032;-74
2021/08/13 03:30:49;;;;;;;10.40;7.53;;;19.50;67.10;;;;;;5056147;28;20033;-74
2021/08/13 03:33:16;;;;;;;10.13;7.60;;;19.60;67.00;;;;;;5056150;28;20362;-74
2021/08/13 03:35:43;;;;;;;7.85;6.68;;;19.60;66.90;;;;;;5056159;28;20025;-74
2021/08/13 03:38:09;;;;;;;10.43;6.18;;;19.60;66.90;;;;;;5056142;28;20060;-74
2021/08/13 03:40:35;;;;;;;10.35;6.25;;;19.60;66.90;;;;;;5056735;28;20039;-74
2021/08/13 03:43:01;;;;;;;9.30;6.28;;;19.70;66.80;;;;;;5056721;28;20035;-74
2021/08/13 03:45:27;;;;;;;8.02;6.07;;;19.80;66.70;;;;;;5056028;28;20052;-74
2021/08/13 03:47:52;;;;;;;8.63;5.88;;;19.80;66.60;;;;;;5055878;28;20056;-74
2021/08/13 03:50:18;;;;;;;9.25;6.47;;;19.90;66.50;;;;;;5056302;28;20115;-74
2021/08/13 03:52:44;;;;;;;8.32;6.07;;;19.90;66.40;;;;;;5056300;28;20347;-74
2021/08/13 03:55:13;;;;;;;8.48;5.97;;;20.00;66.30;;;;;;5056647;28;20458;-76
2021/08/13 03:57:42;;;;;;;8.10;5.75;;;20.00;66.10;;;;;;5054946;28;20334;-75
2021/08/13 04:00:09;;;;;;;8.63;5.75;;;20.00;66.00;;;;;;5055330;28;20117;-76
2021/08/13 04:02:35;;;;;;;6.97;5.35;;;20.10;65.90;;;;;;5055757;28;20071;-73
2021/08/13 04:05:01;;;;;;;8.30;5.40;;;20.10;65.80;;;;;;5056156;28;20487;-74
2021/08/13 04:07:27;;;;;;;7.15;5.53;;;20.10;65.80;;;;;;5055726;28;20060;-73
2021/08/13 04:09:53;;;;;;;8.13;5.55;;;20.10;65.70;;;;;;5055498;28;20415;-77
2021/08/13 04:12:19;;;;;;;7.38;4.85;;;20.20;65.60;;;;;;5055565;28;20477;-75
2021/08/13 04:14:45;;;;;;;6.32;4.60;;;20.20;65.50;;;;;;5055545;28;20036;-78
2021/08/13 04:17:11;;;;;;;8.20;5.30;;;20.20;65.40;;;;;;5055545;28;20020;-77
2021/08/13 04:19:36;;;;;;;9.18;5.20;;;20.30;65.30;;;;;;5055391;28;20110;-74
2021/08/13 04:22:04;;;;;;;6.40;4.82;;;20.30;65.10;;;;;;5055722;28;20104;-76
2021/08/13 04:24:33;;;;;;;7.10;4.78;;;20.40;64.90;;;;;;5055381;28;20029;-75
2021/08/13 04:26:59;;;;;;;7.43;4.85;;;20.50;64.70;;;;;;5055706;28;20503;-74
2021/08/13 04:29:25;;;;;;;5.82;4.63;;;20.50;64.50;;;;;;5055029;28;20029;-75
2021/08/13 04:31:51;;;;;;;9.23;4.85;;;20.60;64.40;;;;;;5055004;28;20028;-74
2021/08/13 04:34:17;;;;;;;7.72;4.60;;;20.60;64.30;;;;;;5055182;28;20476;-75
2021/08/13 04:36:43;;;;;;;8.30;4.53;;;20.70;64.10;;;;;;5054872;28;20028;-75
2021/08/13 04:39:09;;;;;;;7.88;4.75;;;20.80;64.00;;;;;;5055175;28;20381;-74
2021/08/13 04:41:35;;;;;;;6.25;4.47;;;20.90;63.80;;;;;;5055390;28;20132;-74
2021/08/13 04:44:02;;;;;;;7.35;5.00;;;21.00;63.70;;;;;;5055367;28;20469;-75
2021/08/13 04:46:27;;;;;;;14.82;5.30;;;21.00;63.60;;;;;;5053226;28;20381;-76
2021/08/13 04:48:53;;;;;;;9.88;5.60;;;21.10;63.40;;;;;;5053334;28;20028;-74
2021/08/13 04:51:19;;;;;;;8.45;5.10;;;21.10;63.40;;;;;;5054269;28;20457;-73
2021/08/13 04:53:44;;;;;;;12.77;5.43;;;21.10;63.30;;;;;;5054866;28;20049;-74
2021/08/13 04:56:10;;;;;;;8.13;5.28;;;21.20;63.30;;;;;;5054422;28;20029;-74
2021/08/13 04:58:36;;;;;;;5.88;4.60;;;21.20;63.20;;;;;;5054564;28;20483;-73
2021/08/13 05:01:02;;;;;;;8.25;4.78;;;21.30;63.30;;;;;;5055165;28;20025;-75
2021/08/13 05:03:27;;;;;;;7.53;4.93;;;21.30;63.30;;;;;;5054915;28;20131;-76
2021/08/13 05:05:53;;;;;;;8.32;5.53;;;21.30;63.30;;;;;;5054847;28;20056;-76
2021/08/13 05:08:19;;;;;;;10.10;4.88;;;21.40;63.30;;;;;;5054399;28;20029;-75
2021/08/13 05:10:45;;;;;;;7.97;4.85;;;21.40;63.20;;;;;;5054770;28;20491;-75
2021/08/13 05:13:10;;;;;;;8.50;5.03;;;21.50;63.20;;;;;;5053242;28;20032;-74
2021/08/13 05:15:36;;;;;;;8.32;4.72;;;21.60;63.10;;;;;;5054472;28;20131;-74
2021/08/13 05:18:05;;;;;;;6.90;5.13;;;21.60;63.10;;;;;;5054505;28;20075;-74
2021/08/13 05:20:30;;;;;;;9.05;5.03;;;21.70;63.10;;;;;;5053070;28;20033;-74
2021/08/13 05:22:56;;;;;;;8.50;4.70;;;21.70;63.10;;;;;;5053549;28;20120;-75
2021/08/13 05:25:22;;;;;;;8.93;4.95;;;21.80;63.10;;;;;;5054472;28;20505;-75
2021/08/13 05:27:48;;;;;;;8.15;5.07;;;21.90;63.00;;;;;;5053886;28;20029;-75
2021/08/13 05:30:14;;;;;;;11.93;5.57;;;21.90;63.00;;;;;;5054227;28;20037;-77
2021/08/13 05:32:41;;;;;;;6.68;5.07;;;21.90;63.00;;;;;;5053869;28;20017;-74
2021/08/13 05:35:09;;;;;;;6.25;5.07;;;22.00;63.00;;;;;;5052688;28;20028;-74
2021/08/13 05:37:35;;;;;;;7.53;4.90;;;22.00;62.90;;;;;;5053666;28;20027;-75
2021/08/13 05:40:01;;;;;;;9.95;5.13;;;22.10;62.80;;;;;;5053928;28;20141;-75
2021/08/13 05:42:27;;;;;;;6.93;4.90;;;22.10;63.50;;;;;;5053804;28;20040;-74
2021/08/13 05:44:53;;;;;;;6.82;4.65;;;22.10;62.70;;;;;;5053678;28;20024;-74
2021/08/13 05:47:18;;;;;;;8.77;5.30;;;22.20;62.80;;;;;;5053248;28;20025;-74
2021/08/13 05:49:44;;;;;;;9.80;5.53;;;22.30;62.70;;;;;;5053847;28;20110;-73
2021/08/13 05:52:10;;;;;;;8.07;5.38;;;22.40;62.70;;;;;;5054009;28;20538;-74
2021/08/13 05:54:36;;;;;;;7.80;4.90;;;22.40;62.60;;;;;;5053240;28;20531;-76
2021/08/13 05:57:02;;;;;;;6.90;5.05;;;22.40;63.20;;;;;;5053780;28;20461;-75
2021/08/13 05:59:28;;;;;;;8.18;5.30;;;22.40;62.60;;;;;;5053630;28;20380;-75
2021/08/13 06:01:53;;;;;;;7.07;5.10;;;22.50;62.80;;;;;;5053915;28;20112;-73
2021/08/13 06:04:19;;;;;;;8.90;5.28;;;22.50;62.70;;;;;;5053610;28;20025;-74
2021/08/13 06:06:45;;;;;;;9.02;5.40;;;22.60;62.80;;;;;;5054035;28;20037;-75
2021/08/13 06:09:11;;;;;;;9.85;4.82;;;22.60;62.70;;;;;;5053675;28;20032;-75
2021/08/13 06:11:37;;;;;;;8.90;5.40;;;22.70;62.90;;;;;;5053638;28;20025;-75
2021/08/13 06:14:03;;;;;;;7.43;5.53;;;22.70;62.90;;;;;;5053673;28;20021;-74
2021/08/13 06:16:29;;;;;;;8.18;5.10;;;22.80;62.90;;;;;;5053313;28;20061;-74
2021/08/13 06:18:54;;;;;;;6.65;5.53;;;22.80;62.90;;;;;;5053428;28;20497;-74
2021/08/13 06:21:20;;;;;;;7.68;5.53;;;22.90;62.90;;;;;;5052996;28;20102;-74
2021/08/13 06:23:46;;;;;;;6.05;5.07;;;23.00;62.80;;;;;;5053467;28;20032;-74
2021/08/13 06:26:12;;;;;;;6.25;5.28;;;23.00;62.80;;;;;;5053285;28;20025;-74
2021/08/13 06:28:38;;;;;;;11.35;5.68;;;23.10;62.90;;;;;;5053376;28;20039;-75
2021/08/13 06:31:04;;;;;;;10.18;6.07;;;23.10;62.90;;;;;;5053141;28;20401;-74
2021/08/13 06:33:30;;;;;;;10.02;5.70;;;23.20;62.90;;;;;;5054689;28;20036;-75
2021/08/13 06:35:56;;;;;;;7.35;5.57;;;23.10;63.10;;;;;;5057377;28;20021;-75
2021/08/13 06:38:22;;;;;;;7.82;5.60;;;23.10;63.40;;;;;;5057963;28;20033;-75
2021/08/13 06:41:00;;;;;;;7.80;5.63;;;23.20;63.50;;;;;;5057479;28;20033;-74
2021/08/13 06:43:26;;;;;;;7.70;4.75;;;23.20;63.40;;;;;;5057734;28;20032;-75
2021/08/13 06:45:51;;;;;;;8.75;4.97;;;23.30;63.50;;;;;;5057271;28;20025;-74
2021/08/13 06:48:20;;;;;;;6.18;5.07;;;23.30;63.40;;;;;;5057008;28;20025;-74
2021/08/13 06:50:46;;;;;;;10.82;5.30;;;23.40;63.30;;;;;;5057187;28;20029;-76
2021/08/13 06:53:12;;;;;;;7.65;5.28;;;23.40;63.10;;;;;;5057200;28;20473;-75
2021/08/13 06:55:44;;;;;;;7.40;5.20;;;23.50;63.00;;;;;;5056815;28;20078;-75
2021/08/13 06:58:11;;;;;;;6.50;4.88;;;23.60;62.80;;;;;;5055222;28;20025;-75
2021/08/13 07:00:38;;;;;;;6.78;4.90;;;23.60;62.70;;;;;;5056886;28;20095;-76
2021/08/13 07:03:04;;;;;;;7.70;4.57;;;23.60;62.40;;;;;;5055945;28;20036;-75
2021/08/13 07:05:30;;;;;;;7.40;5.20;;;23.70;62.00;;;;;;5057195;28;20356;-74
2021/08/13 07:07:55;;;;;;;5.47;4.53;;;23.80;61.90;;;;;;5056650;28;20362;-74
2021/08/13 07:10:24;;;;;;;5.85;5.18;;;23.90;61.40;;;;;;5055587;28;20442;-73
2021/08/13 07:12:51;;;;;;;5.85;4.68;;;24.00;61.30;;;;;;5055694;28;20049;-74
2021/08/13 07:15:19;;;;;;;6.60;5.03;;;24.00;61.30;;;;;;5056271;28;20029;-75
2021/08/13 07:17:44;;;;;;;7.00;4.60;;;24.10;61.20;;;;;;5056634;28;20094;-74
2021/08/13 07:20:11;;;;;;;4.82;4.15;;;24.20;60.90;;;;;;5056770;28;20029;-75
2021/08/13 07:22:38;;;;;;;8.35;5.03;;;24.20;60.60;;;;;;5056431;28;20056;-74
2021/08/13 07:25:05;;;;;;;8.45;4.70;;;24.30;60.30;;;;;;5055343;28;20032;-74
2021/08/13 07:27:33;;;;;;;6.45;4.95;;;24.50;60.20;;;;;;5054942;28;20121;-75
2021/08/13 07:30:01;;;;;;;6.93;4.65;;;24.50;60.00;;;;;;5057061;28;20028;-74
2021/08/13 07:32:29;;;;;;;9.38;5.20;;;24.60;59.80;;;;;;5056676;28;20025;-74
2021/08/13 07:34:55;;;;;;;5.70;5.05;;;24.70;59.70;;;;;;5056580;28;20017;-73
2021/08/13 07:37:29;;;;;;;7.80;4.65;;;24.80;59.60;;;;;;5056750;28;20083;-73
2021/08/13 07:39:55;;;;;;;10.18;5.10;;;24.80;59.40;;;;;;5056131;28;20052;-74
2021/08/13 07:42:25;;;;;;;6.05;4.43;;;24.90;59.30;;;;;;5056080;28;20064;-73
2021/08/13 07:44:56;;;;;;;8.23;4.40;;;25.00;59.10;;;;;;5054899;28;20024;-73
2021/08/13 07:47:24;;;;;;;6.18;4.20;;;25.10;59.00;;;;;;5055901;28;20021;-73
2021/08/13 07:49:51;;;;;;;6.25;4.28;;;25.20;58.70;;;;;;5055789;28;20500;-74
2021/08/13 07:52:17;;;;;;;7.13;4.63;;;25.30;58.30;;;;;;5056417;28;20037;-74
2021/08/13 07:54:44;;;;;;;5.25;4.25;;;25.40;57.80;;;;;;5054541;28;20056;-74
2021/08/13 07:57:11;;;;;;;5.00;3.80;;;25.50;57.20;;;;;;5055492;28;20369;-75
2021/08/13 07:59:38;;;;;;;6.20;4.15;;;25.60;56.70;;;;;;5056244;28;20036;-75
2021/08/13 08:02:05;;;;;;;5.88;3.60;;;25.70;56.40;;;;;;5055692;28;20095;-76
2021/08/13 08:04:32;;;;;;;5.13;3.75;;;25.80;56.20;;;;;;5055223;28;20020;-75
2021/08/13 08:06:58;;;;;;;5.45;3.50;;;26.00;55.60;;;;;;5055272;28;20469;-75
2021/08/13 08:09:24;;;;;;;5.13;3.80;;;26.10;55.10;;;;;;5054573;28;20036;-76
2021/08/13 08:11:51;;;;;;;5.63;3.50;;;26.20;54.80;;;;;;5055673;28;20025;-75
2021/08/13 08:14:17;;;;;;;4.45;3.20;;;26.30;54.80;;;;;;5055739;28;20029;-75
2021/08/13 08:16:45;;;;;;;4.35;3.03;;;26.50;54.10;;;;;;5055466;28;20033;-76
2021/08/13 08:19:12;;;;;;;4.05;3.20;;;26.60;53.40;;;;;;5055330;28;20037;-76
2021/08/13 08:21:38;;;;;;;4.53;3.22;;;26.90;53.00;;;;;;5071029;28;20067;-76
2021/08/13 08:24:04;;;;;;;4.65;3.33;;;27.00;52.40;;;;;;5055162;28;20021;-75
2021/08/13 08:26:30;;;;;;;4.95;3.35;;;27.20;52.00;;;;;;5055422;28;20029;-76
2021/08/13 08:28:56;;;;;;;4.88;3.40;;;27.40;51.40;;;;;;5055686;28;20064;-77
2021/08/13 08:31:21;;;;;;;5.50;3.33;;;27.60;51.00;;;;;;5055511;28;20055;-76
2021/08/13 08:33:47;;;;;;;4.60;3.60;;;27.70;50.00;;;;;;5055704;28;20090;-76
2021/08/13 08:36:13;;;;;;;5.35;3.65;;;27.80;49.40;;;;;;5055689;28;20028;-76
2021/08/13 08:38:39;;;;;;;3.65;3.20;;;28.00;49.20;;;;;;5055410;28;20487;-77
2021/08/13 08:41:06;;;;;;;6.05;3.85;;;28.20;48.60;;;;;;5055821;28;20400;-75
2021/08/13 08:43:32;;;;;;;5.93;3.47;;;28.40;48.20;;;;;;5037895;28;20029;-77
2021/08/13 08:45:59;;;;;;;5.15;3.50;;;28.50;48.10;;;;;;5055170;28;20365;-75
2021/08/13 08:48:34;;;;;;;5.63;3.42;;;28.80;48.00;;;;;;5055220;28;20114;-76
2021/08/13 08:51:00;;;;;;;4.43;3.40;;;29.00;47.60;;;;;;5055173;28;20028;-76
2021/08/13 08:53:34;;;;;;;6.15;3.80;;;29.20;47.40;;;;;;5055080;28;20048;-75
2021/08/13 08:56:04;;;;;;;4.32;3.38;;;29.40;46.90;;;;;;5054920;28;20025;-74
2021/08/13 08:58:32;;;;;;;5.38;3.25;;;29.70;46.70;;;;;;5054536;28;20029;-74
2021/08/13 09:01:17;;;;;;;4.88;3.60;;;29.90;46.30;;;;;;5054978;28;20612;-76
2021/08/13 09:03:48;;;;;;;6.32;3.40;;;30.20;45.80;;;;;;5054421;28;20025;-75
2021/08/13 09:06:18;;;;;;;5.43;3.47;;;30.50;45.70;;;;;;5054799;28;20060;-74
2021/08/13 09:08:44;;;;;;;6.20;3.70;;;30.70;45.30;;;;;;5054886;28;20060;-76
2021/08/13 09:11:10;;;;;;;5.80;3.80;;;30.90;44.90;;;;;;5055078;28;20029;-75
2021/08/13 09:13:38;;;;;;;6.38;3.50;;;31.20;44.70;;;;;;5053696;28;20032;-75
2021/08/13 09:16:12;;;;;;;7.18;3.42;;;31.40;44.30;;;;;;5054549;28;20033;-75
2021/08/13 09:18:39;;;;;;;4.32;3.35;;;31.70;43.70;;;;;;5053268;28;20024;-75
2021/08/13 09:21:06;;;;;;;7.38;3.33;;;32.00;43.50;;;;;;5054836;28;20029;-75
2021/08/13 09:23:45;;;;;;;4.93;2.80;;;32.20;43.00;;;;;;5053298;28;20036;-77
2021/08/13 09:26:15;;;;;;;3.90;3.17;;;32.40;42.30;;;;;;5055086;28;20025;-74
2021/08/13 09:28:45;;;;;;;4.03;3.08;;;32.60;42.00;;;;;;5054303;28;20028;-76
2021/08/13 09:31:25;;;;;;;3.72;3.10;;;32.90;42.00;;;;;;5052772;28;20025;-74
2021/08/13 09:33:55;;;;;;;5.43;3.05;;;33.10;41.60;;;;;;5054251;28;20032;-74
2021/08/13 09:36:25;;;;;;;4.00;2.90;;;33.30;41.30;;;;;;5054332;28;20032;-75
2021/08/13 09:39:26;;;;;;;4.38;2.92;;;33.50;41.00;;;;;;5052895;28;20128;-74
2021/08/13 09:41:55;;;;;;;4.35;3.28;;;33.60;40.70;;;;;;5046390;28;20037;-74
2021/08/13 09:44:27;;;;;;;4.10;3.30;;;33.80;40.80;;;;;;5053855;28;20025;-75
2021/08/13 09:47:02;;;;;;;5.75;3.03;;;33.90;40.40;;;;;;5054099;28;20029;-75
2021/08/13 09:49:29;;;;;;;6.28;3.35;;;34.20;40.20;;;;;;5053719;28;20116;-75
2021/08/13 09:51:55;;;;;;;5.03;3.47;;;34.30;39.80;;;;;;5054192;28;20032;-75
2021/08/13 09:54:29;;;;;;;5.55;3.25;;;34.40;39.80;;;;;;5054673;28;20045;-75
2021/08/13 09:57:07;;;;;;;5.47;3.03;;;34.60;39.60;;;;;;5052688;28;20024;-75
2021/08/13 09:59:34;;;;;;;4.97;3.13;;;34.80;39.30;;;;;;5053036;28;20032;-75
2021/08/13 10:02:12;;;;;;;3.55;2.60;;;34.90;39.00;;;;;;5053829;28;20029;-76
2021/08/13 10:04:38;;;;;;;4.90;3.03;;;34.90;38.80;;;;;;5053780;28;20029;-75
2021/08/13 10:07:05;;;;;;;5.63;2.80;;;35.00;39.30;;;;;;5053747;28;20036;-76
2021/08/13 10:09:31;;;;;;;5.45;3.42;;;35.10;38.60;;;;;;5053837;28;20043;-76
2021/08/13 10:11:59;;;;;;;4.88;3.20;;;35.10;38.60;;;;;;5054371;28;20491;-75
2021/08/13 10:14:33;;;;;;;3.70;3.33;;;35.20;38.50;;;;;;5053556;28;20048;-75
2021/08/13 10:17:12;;;;;;;2.90;2.67;;;35.60;38.30;;;;;;5052164;28;20492;-75
2021/08/13 10:19:45;;;;;;;4.82;2.75;;;35.90;38.00;;;;;;5052652;28;20203;-76
2021/08/13 10:22:12;;;;;;;3.10;2.70;;;35.90;37.60;;;;;;5053398;28;20107;-78
2021/08/13 10:24:39;;;;;;;5.78;2.50;;;35.80;37.40;;;;;;5052508;28;20389;-76
2021/08/13 10:27:06;;;;;;;3.17;2.75;;;35.70;37.50;;;;;;5053520;28;20057;-75
2021/08/13 10:29:32;;;;;;;4.20;2.50;;;35.70;37.70;;;;;;5053430;28;20432;-76
2021/08/13 10:32:09;;;;;;;4.35;2.90;;;35.80;37.90;;;;;;5053343;28;20116;-76
2021/08/13 10:34:37;;;;;;;3.95;2.95;;;36.10;37.80;;;;;;5053837;28;20462;-76
2021/08/13 10:37:15;;;;;;;5.30;2.60;;;36.30;37.70;;;;;;5052924;28;20370;-75
2021/08/13 10:39:42;;;;;;;4.30;2.78;;;36.40;37.20;;;;;;5053109;28;20036;-76
2021/08/13 10:42:15;;;;;;;3.80;2.80;;;36.50;37.50;;;;;;5053158;28;20032;-75
2021/08/13 10:44:50;;;;;;;4.03;3.05;;;36.80;37.30;;;;;;5053388;28;20071;-76
2021/08/13 10:47:19;;;;;;;5.35;2.75;;;37.10;37.10;;;;;;5053603;28;20083;-74
2021/08/13 10:49:47;;;;;;;3.47;2.70;;;37.40;37.00;;;;;;5053575;28;20056;-76
2021/08/13 10:52:13;;;;;;;4.60;2.60;;;37.90;36.80;;;;;;5053317;28;20056;-76
2021/08/13 10:54:43;;;;;;;5.00;3.17;;;38.20;36.50;;;;;;5054351;28;20045;-77
2021/08/13 10:57:12;;;;;;;4.30;2.70;;;38.50;36.20;;;;;;5052031;28;20029;-76
2021/08/13 10:59:41;;;;;;;3.88;2.67;;;38.80;35.80;;;;;;5053639;28;20056;-75
2021/08/13 11:02:21;;;;;;;4.18;2.70;;;39.00;35.40;;;;;;5053078;28;20090;-76
2021/08/13 11:04:51;;;;;;;3.28;2.97;;;39.30;35.50;;;;;;5053091;28;20024;-76
2021/08/13 11:07:57;;;;;;;3.40;2.60;;;39.70;35.40;;;;;;5052873;28;20071;-76
2021/08/13 11:10:38;;;;;;;4.35;2.40;;;39.80;34.90;;;;;;5051212;28;20439;-76
2021/08/13 11:13:10;;;;;;;4.03;2.65;;;39.90;35.00;;;;;;5052362;28;20033;-76
2021/08/13 11:15:36;;;;;;;2.83;2.28;;;40.20;34.90;;;;;;5053089;28;20040;-76
2021/08/13 11:18:42;;;;;;;3.75;2.60;;;40.40;34.90;;;;;;5053061;28;20033;-76
2021/08/13 11:21:11;;;;;;;2.97;2.67;;;40.80;34.50;;;;;;5056820;28;20040;-76
2021/08/13 11:23:59;;;;;;;5.22;2.80;;;41.00;34.20;;;;;;5057085;28;20447;-75
2021/08/13 11:27:01;;;;;;;2.95;2.65;;;41.40;33.80;;;;;;5055264;28;20418;-76
2021/08/13 11:29:31;;;;;;;4.20;2.47;;;41.70;33.80;;;;;;5056462;28;20499;-76
2021/08/13 11:32:08;;;;;;;3.95;2.38;;;41.90;33.50;;;;;;5056181;28;20726;-76
2021/08/13 11:34:45;;;;;;;3.60;2.80;;;42.20;33.10;;;;;;5055092;28;20025;-76
2021/08/13 11:37:29;;;;;;;4.40;2.80;;;42.50;32.80;;;;;;5056302;28;20025;-76
2021/08/13 11:39:56;;;;;;;3.65;2.40;;;42.70;32.60;;;;;;5056418;28;20029;-77
2021/08/13 11:42:24;;;;;;;13.57;3.25;;;42.90;32.40;;;;;;5056332;28;20025;-74
2021/08/13 11:44:52;;;;;;;4.50;2.50;;;43.00;32.30;;;;;;5056542;28;20025;-75
2021/08/13 11:47:22;;;;;;;4.05;2.75;;;43.10;32.30;;;;;;5055735;28;20025;-76
2021/08/13 11:49:52;;;;;;;4.97;2.80;;;43.40;32.20;;;;;;5054986;28;20033;-76
2021/08/13 11:52:19;;;;;;;4.60;2.65;;;43.60;31.70;;;;;;5056343;28;20043;-75
2021/08/13 11:54:45;;;;;;;7.55;2.45;;;43.60;31.70;;;;;;5056948;28;20045;-75
2021/08/13 11:57:19;;;;;;;4.45;2.33;;;43.80;31.60;;;;;;5055547;28;20099;-76
2021/08/13 11:59:46;;;;;;;2.70;2.13;;;44.10;31.00;;;;;;5055665;28;20071;-74
2021/08/13 12:02:25;;;;;;;6.57;2.30;;;44.20;31.10;;;;;;5056358;28;20457;-75
2021/08/13 12:05:08;;;;;;;4.80;2.28;;;44.30;30.90;;;;;;5055685;28;20021;-75
2021/08/13 12:07:35;;;;;;;2.72;2.17;;;44.40;30.90;;;;;;5056469;28;20032;-75
2021/08/13 12:10:10;;;;;;;3.67;2.13;;;44.70;30.90;;;;;;5055376;28;20025;-75
2021/08/13 12:12:36;;;;;;;2.47;2.17;;;45.00;30.60;;;;;;5054312;28;20028;-75
2021/08/13 12:15:03;;;;;;;4.82;2.60;;;45.10;31.00;;;;;;5055250;28;20025;-76
2021/08/13 12:17:28;;;;;;;5.30;2.53;;;45.10;30.30;;;;;;5054246;28;20116;-74
2021/08/13 12:19:59;;;;;;;2.47;2.28;;;45.20;30.30;;;;;;5055275;28;20128;-75
2021/08/13 12:22:30;;;;;;;3.47;2.60;;;45.20;30.20;;;;;;5037556;28;20029;-76
2021/08/13 12:24:55;;;;;;;2.88;2.20;;;45.30;30.20;;;;;;5055341;28;20032;-75
2021/08/13 12:27:27;;;;;;;2.65;2.42;;;45.50;30.20;;;;;;5054275;28;20021;-77
2021/08/13 12:29:52;;;;;;;2.72;2.50;;;45.80;30.00;;;;;;5053851;28;20033;-74
2021/08/13 12:32:18;;;;;;;2.03;1.92;;;46.00;30.00;;;;;;5054957;28;20036;-76
2021/08/13 12:34:44;;;;;;;2.58;2.22;;;46.30;29.90;;;;;;5055497;28;20579;-76
2021/08/13 12:37:12;;;;;;;4.75;3.20;;;46.50;29.70;;;;;;5054750;28;20081;-76
2021/08/13 12:39:40;;;;;;;5.18;2.45;;;46.50;29.50;;;;;;5055255;28;20072;-76
2021/08/13 12:42:09;;;;;;;3.72;2.60;;;46.50;29.50;;;;;;5055166;28;20024;-76
2021/08/13 12:44:37;;;;;;;2.45;2.25;;;46.60;29.40;;;;;;5055290;28;20025;-78
2021/08/13 12:47:04;;;;;;;4.70;2.40;;;46.70;29.40;;;;;;5053719;28;20029;-76
2021/08/13 12:49:30;;;;;;;2.90;2.22;;;46.50;29.30;;;;;;5053788;28;20106;-76
2021/08/13 12:52:18;;;;;;;2.78;2.47;;;46.60;29.40;;;;;;5053876;28;20021;-75
2021/08/13 12:54:46;;;;;;;3.00;2.72;;;46.70;29.30;;;;;;5053781;28;20056;-78